sensor_id;sensor_type;location;lat;lon;timestamp;P1;durP1;ratioP1;P2;durP2;ratioP2
39896;SDS011;25567;48.276;14.242;2022-08-19T00:00:03;6.35;;;2.63;;
39896;SDS011;25567;48.276;14.242;2022-08-19T00:02:46;13.63;;;3.08;;
39896;SDS011;25567;48.276;14.242;2022-08-19T00:05:16;9.15;;;2.75;;
39896;SDS011;25567;48.276;14.242;2022-08-19T00:07:44;7.97;;;2.95;;
39896;SDS011;25567;48.276;14.242;2022-08-19T00:10:12;5.60;;;2.85;;
39896;SDS011;25567;48.276;14.242;2022-08-19T00:12:41;10.90;;;3.22;;
39896;SDS011;25567;48.276;14.242;2022-08-19T00:15:13;5.07;;;2.78;;
39896;SDS011;25567;48.276;14.242;2022-08-19T00:17:49;5.55;;;2.63;;
39896;SDS011;25567;48.276;14.242;2022-08-19T00:20:18;9.80;;;2.83;;
39896;SDS011;25567;48.276;14.242;2022-08-19T00:22:46;10.40;;;3.13;;
39896;SDS011;25567;48.276;14.242;2022-08-19T00:25:21;8.27;;;3.75;;
39896;SDS011;25567;48.276;14.242;2022-08-19T00:27:56;13.38;;;3.58;;
39896;SDS011;25567;48.276;14.242;2022-08-19T00:30:23;10.90;;;3.25;;
39896;SDS011;25567;48.276;14.242;2022-08-19T00:32:49;10.32;;;3.15;;
39896;SDS011;25567;48.276;14.242;2022-08-19T00:35:17;9.00;;;3.08;;
39896;SDS011;25567;48.276;14.242;2022-08-19T00:37:44;11.88;;;2.80;;
39896;SDS011;25567;48.276;14.242;2022-08-19T00:40:14;5.88;;;2.58;;
39896;SDS011;25567;48.276;14.242;2022-08-19T00:42:43;12.40;;;3.20;;
39896;SDS011;25567;48.276;14.242;2022-08-19T00:45:12;7.93;;;2.60;;
39896;SDS011;25567;48.276;14.242;2022-08-19T00:47:43;6.43;;;2.90;;
39896;SDS011;25567;48.276;14.242;2022-08-19T00:50:12;9.32;;;3.38;;
39896;SDS011;25567;48.276;14.242;2022-08-19T00:52:43;12.15;;;2.95;;
39896;SDS011;25567;48.276;14.242;2022-08-19T00:55:14;11.77;;;2.85;;
39896;SDS011;25567;48.276;14.242;2022-08-19T00:57:47;10.27;;;2.75;;
39896;SDS011;25567;48.276;14.242;2022-08-19T01:00:18;5.55;;;2.53;;
39896;SDS011;25567;48.276;14.242;2022-08-19T01:02:46;11.00;;;2.80;;
39896;SDS011;25567;48.276;14.242;2022-08-19T01:05:16;7.63;;;2.53;;
39896;SDS011;25567;48.276;14.242;2022-08-19T01:07:47;8.13;;;2.80;;
39896;SDS011;25567;48.276;14.242;2022-08-19T01:10:17;8.50;;;3.08;;
39896;SDS011;25567;48.276;14.242;2022-08-19T01:12:51;6.75;;;3.00;;
39896;SDS011;25567;48.276;14.242;2022-08-19T01:15:22;5.47;;;2.30;;
39896;SDS011;25567;48.276;14.242;2022-08-19T01:17:53;7.05;;;2.90;;
39896;SDS011;25567;48.276;14.242;2022-08-19T01:20:21;7.85;;;3.45;;
39896;SDS011;25567;48.276;14.242;2022-08-19T01:22:51;7.57;;;2.78;;
39896;SDS011;25567;48.276;14.242;2022-08-19T01:25:22;7.05;;;3.00;;
39896;SDS011;25567;48.276;14.242;2022-08-19T01:27:54;11.25;;;3.20;;
39896;SDS011;25567;48.276;14.242;2022-08-19T01:30:28;8.55;;;3.30;;
39896;SDS011;25567;48.276;14.242;2022-08-19T01:32:58;8.85;;;2.75;;
39896;SDS011;25567;48.276;14.242;2022-08-19T01:35:27;8.60;;;2.42;;
39896;SDS011;25567;48.276;14.242;2022-08-19T01:37:57;9.93;;;3.65;;
39896;SDS011;25567;48.276;14.242;2022-08-19T01:40:29;7.07;;;2.65;;
39896;SDS011;25567;48.276;14.242;2022-08-19T01:42:59;9.23;;;2.95;;
39896;SDS011;25567;48.276;14.242;2022-08-19T01:45:27;10.05;;;3.05;;
39896;SDS011;25567;48.276;14.242;2022-08-19T01:47:56;6.07;;;2.33;;
39896;SDS011;25567;48.276;14.242;2022-08-19T01:50:28;10.80;;;2.78;;
39896;SDS011;25567;48.276;14.242;2022-08-19T01:52:56;11.75;;;3.08;;
39896;SDS011;25567;48.276;14.242;2022-08-19T01:55:33;8.98;;;2.63;;
39896;SDS011;25567;48.276;14.242;2022-08-19T01:58:08;7.05;;;2.90;;
39896;SDS011;25567;48.276;14.242;2022-08-19T02:00:57;6.57;;;2.20;;
39896;SDS011;25567;48.276;14.242;2022-08-19T02:03:24;9.95;;;2.78;;
39896;SDS011;25567;48.276;14.242;2022-08-19T02:05:59;7.00;;;2.78;;
39896;SDS011;25567;48.276;14.242;2022-08-19T02:08:29;5.22;;;2.35;;
39896;SDS011;25567;48.276;14.242;2022-08-19T02:10:57;12.02;;;2.90;;
39896;SDS011;25567;48.276;14.242;2022-08-19T02:13:24;10.48;;;2.90;;
39896;SDS011;25567;48.276;14.242;2022-08-19T02:15:54;10.15;;;3.08;;
39896;SDS011;25567;48.276;14.242;2022-08-19T02:18:25;9.18;;;2.75;;
39896;SDS011;25567;48.276;14.242;2022-08-19T02:20:58;9.75;;;2.92;;
39896;SDS011;25567;48.276;14.242;2022-08-19T02:23:31;11.00;;;3.67;;
39896;SDS011;25567;48.276;14.242;2022-08-19T02:25:57;17.08;;;3.90;;
39896;SDS011;25567;48.276;14.242;2022-08-19T02:28:26;7.57;;;2.83;;
39896;SDS011;25567;48.276;14.242;2022-08-19T02:30:52;9.18;;;3.33;;
39896;SDS011;25567;48.276;14.242;2022-08-19T02:33:19;12.80;;;3.10;;
39896;SDS011;25567;48.276;14.242;2022-08-19T02:35:46;9.90;;;3.70;;
39896;SDS011;25567;48.276;14.242;2022-08-19T02:38:16;8.73;;;3.38;;
39896;SDS011;25567;48.276;14.242;2022-08-19T02:41:00;10.38;;;3.42;;
39896;SDS011;25567;48.276;14.242;2022-08-19T02:43:30;9.13;;;3.00;;
39896;SDS011;25567;48.276;14.242;2022-08-19T02:46:00;13.77;;;3.72;;
39896;SDS011;25567;48.276;14.242;2022-08-19T02:48:27;11.18;;;3.65;;
39896;SDS011;25567;48.276;14.242;2022-08-19T02:50:54;14.65;;;3.90;;
39896;SDS011;25567;48.276;14.242;2022-08-19T02:53:23;12.40;;;3.53;;
39896;SDS011;25567;48.276;14.242;2022-08-19T02:55:52;13.65;;;3.50;;
39896;SDS011;25567;48.276;14.242;2022-08-19T02:58:20;9.10;;;3.53;;
39896;SDS011;25567;48.276;14.242;2022-08-19T03:00:49;12.82;;;3.70;;
39896;SDS011;25567;48.276;14.242;2022-08-19T03:03:19;9.98;;;3.30;;
39896;SDS011;25567;48.276;14.242;2022-08-19T03:08:40;17.88;;;3.28;;
39896;SDS011;25567;48.276;14.242;2022-08-19T03:11:13;10.30;;;3.67;;
39896;SDS011;25567;48.276;14.242;2022-08-19T03:13:53;10.65;;;4.13;;
39896;SDS011;25567;48.276;14.242;2022-08-19T03:16:21;9.50;;;3.72;;
39896;SDS011;25567;48.276;14.242;2022-08-19T03:18:51;9.38;;;3.47;;
39896;SDS011;25567;48.276;14.242;2022-08-19T03:21:21;12.18;;;3.97;;
39896;SDS011;25567;48.276;14.242;2022-08-19T03:23:53;10.40;;;3.45;;
39896;SDS011;25567;48.276;14.242;2022-08-19T03:26:20;10.02;;;3.58;;
39896;SDS011;25567;48.276;14.242;2022-08-19T03:28:47;14.00;;;3.63;;
39896;SDS011;25567;48.276;14.242;2022-08-19T03:31:24;9.98;;;3.40;;
39896;SDS011;25567;48.276;14.242;2022-08-19T03:34:13;9.18;;;3.42;;
39896;SDS011;25567;48.276;14.242;2022-08-19T03:36:43;13.35;;;4.38;;
39896;SDS011;25567;48.276;14.242;2022-08-19T03:39:11;17.60;;;4.25;;
39896;SDS011;25567;48.276;14.242;2022-08-19T03:41:39;11.75;;;4.10;;
39896;SDS011;25567;48.276;14.242;2022-08-19T03:44:12;10.48;;;3.72;;
39896;SDS011;25567;48.276;14.242;2022-08-19T03:46:43;12.40;;;4.35;;
39896;SDS011;25567;48.276;14.242;2022-08-19T03:49:10;11.25;;;3.88;;
39896;SDS011;25567;48.276;14.242;2022-08-19T03:51:40;15.70;;;3.85;;
39896;SDS011;25567;48.276;14.242;2022-08-19T03:54:09;11.45;;;3.85;;
39896;SDS011;25567;48.276;14.242;2022-08-19T03:56:39;11.07;;;4.22;;
39896;SDS011;25567;48.276;14.242;2022-08-19T03:59:10;15.13;;;4.10;;
39896;SDS011;25567;48.276;14.242;2022-08-19T04:01:40;7.85;;;4.00;;
39896;SDS011;25567;48.276;14.242;2022-08-19T04:04:07;18.42;;;4.70;;
39896;SDS011;25567;48.276;14.242;2022-08-19T04:06:35;13.20;;;4.20;;
39896;SDS011;25567;48.276;14.242;2022-08-19T04:09:08;8.63;;;3.90;;
39896;SDS011;25567;48.276;14.242;2022-08-19T04:11:38;7.10;;;3.63;;
39896;SDS011;25567;48.276;14.242;2022-08-19T04:14:10;10.85;;;4.43;;
39896;SDS011;25567;48.276;14.242;2022-08-19T04:16:40;8.95;;;4.43;;
39896;SDS011;25567;48.276;14.242;2022-08-19T04:19:09;15.23;;;5.35;;
39896;SDS011;25567;48.276;14.242;2022-08-19T04:21:37;9.20;;;4.15;;
39896;SDS011;25567;48.276;14.242;2022-08-19T04:24:05;13.38;;;5.25;;
39896;SDS011;25567;48.276;14.242;2022-08-19T04:26:34;10.73;;;4.85;;
39896;SDS011;25567;48.276;14.242;2022-08-19T04:29:05;13.00;;;6.60;;
39896;SDS011;25567;48.276;14.242;2022-08-19T04:31:42;13.38;;;7.32;;
39896;SDS011;25567;48.276;14.242;2022-08-19T04:34:11;16.92;;;7.15;;
39896;SDS011;25567;48.276;14.242;2022-08-19T04:36:40;17.13;;;7.00;;
39896;SDS011;25567;48.276;14.242;2022-08-19T04:39:10;13.25;;;7.22;;
39896;SDS011;25567;48.276;14.242;2022-08-19T04:41:40;16.23;;;6.70;;
39896;SDS011;25567;48.276;14.242;2022-08-19T04:44:22;15.05;;;6.65;;
39896;SDS011;25567;48.276;14.242;2022-08-19T04:46:49;13.10;;;6.65;;
39896;SDS011;25567;48.276;14.242;2022-08-19T04:49:18;15.15;;;7.03;;
39896;SDS011;25567;48.276;14.242;2022-08-19T04:51:49;17.63;;;7.22;;
39896;SDS011;25567;48.276;14.242;2022-08-19T04:54:22;20.65;;;10.23;;
39896;SDS011;25567;48.276;14.242;2022-08-19T04:57:05;21.77;;;11.52;;
39896;SDS011;25567;48.276;14.242;2022-08-19T04:59:35;24.83;;;12.77;;
39896;SDS011;25567;48.276;14.242;2022-08-19T05:02:02;20.17;;;11.60;;
39896;SDS011;25567;48.276;14.242;2022-08-19T05:04:30;17.85;;;11.27;;
39896;SDS011;25567;48.276;14.242;2022-08-19T05:06:58;22.90;;;11.88;;
39896;SDS011;25567;48.276;14.242;2022-08-19T05:09:29;21.25;;;13.35;;
39896;SDS011;25567;48.276;14.242;2022-08-19T05:12:16;24.00;;;12.73;;
39896;SDS011;25567;48.276;14.242;2022-08-19T05:14:54;26.63;;;14.32;;
39896;SDS011;25567;48.276;14.242;2022-08-19T05:17:31;29.58;;;14.52;;
39896;SDS011;25567;48.276;14.242;2022-08-19T05:20:05;24.67;;;14.10;;
39896;SDS011;25567;48.276;14.242;2022-08-19T05:22:49;34.60;;;16.08;;
39896;SDS011;25567;48.276;14.242;2022-08-19T05:25:18;24.42;;;14.52;;
39896;SDS011;25567;48.276;14.242;2022-08-19T05:27:46;26.60;;;12.88;;
39896;SDS011;25567;48.276;14.242;2022-08-19T05:30:14;27.27;;;13.73;;
39896;SDS011;25567;48.276;14.242;2022-08-19T05:32:42;25.02;;;13.25;;
39896;SDS011;25567;48.276;14.242;2022-08-19T05:35:30;22.08;;;11.73;;
39896;SDS011;25567;48.276;14.242;2022-08-19T05:38:23;20.33;;;12.38;;
39896;SDS011;25567;48.276;14.242;2022-08-19T05:41:10;22.10;;;13.13;;
39896;SDS011;25567;48.276;14.242;2022-08-19T05:44:18;17.65;;;11.52;;
39896;SDS011;25567;48.276;14.242;2022-08-19T05:46:47;18.55;;;11.23;;
39896;SDS011;25567;48.276;14.242;2022-08-19T05:49:15;19.80;;;11.85;;
39896;SDS011;25567;48.276;14.242;2022-08-19T05:51:42;25.17;;;14.45;;
39896;SDS011;25567;48.276;14.242;2022-08-19T05:54:13;31.45;;;15.23;;
39896;SDS011;25567;48.276;14.242;2022-08-19T05:56:40;23.00;;;14.20;;
39896;SDS011;25567;48.276;14.242;2022-08-19T05:59:08;29.50;;;16.10;;
39896;SDS011;25567;48.276;14.242;2022-08-19T06:01:38;27.33;;;13.10;;
39896;SDS011;25567;48.276;14.242;2022-08-19T06:04:09;21.55;;;13.32;;
39896;SDS011;25567;48.276;14.242;2022-08-19T06:06:35;22.83;;;13.65;;
39896;SDS011;25567;48.276;14.242;2022-08-19T06:09:04;24.02;;;13.65;;
39896;SDS011;25567;48.276;14.242;2022-08-19T06:11:34;26.90;;;13.85;;
39896;SDS011;25567;48.276;14.242;2022-08-19T06:14:09;24.92;;;14.43;;
39896;SDS011;25567;48.276;14.242;2022-08-19T06:16:42;27.38;;;15.73;;
39896;SDS011;25567;48.276;14.242;2022-08-19T06:19:11;31.35;;;17.23;;
39896;SDS011;25567;48.276;14.242;2022-08-19T06:21:47;30.08;;;18.25;;
39896;SDS011;25567;48.276;14.242;2022-08-19T06:24:17;25.67;;;15.55;;
39896;SDS011;25567;48.276;14.242;2022-08-19T06:26:47;31.92;;;16.40;;
39896;SDS011;25567;48.276;14.242;2022-08-19T06:29:16;36.92;;;18.77;;
39896;SDS011;25567;48.276;14.242;2022-08-19T06:31:50;33.25;;;19.88;;
39896;SDS011;25567;48.276;14.242;2022-08-19T06:34:20;30.52;;;18.40;;
39896;SDS011;25567;48.276;14.242;2022-08-19T06:36:48;34.45;;;19.08;;
39896;SDS011;25567;48.276;14.242;2022-08-19T06:39:21;35.97;;;19.55;;
39896;SDS011;25567;48.276;14.242;2022-08-19T06:41:53;37.53;;;19.20;;
39896;SDS011;25567;48.276;14.242;2022-08-19T06:44:25;39.13;;;20.88;;
39896;SDS011;25567;48.276;14.242;2022-08-19T06:46:56;36.75;;;19.70;;
39896;SDS011;25567;48.276;14.242;2022-08-19T06:49:25;35.33;;;17.80;;
39896;SDS011;25567;48.276;14.242;2022-08-19T06:51:58;37.80;;;18.00;;
39896;SDS011;25567;48.276;14.242;2022-08-19T06:54:27;37.75;;;18.17;;
39896;SDS011;25567;48.276;14.242;2022-08-19T06:57:02;36.15;;;18.27;;
39896;SDS011;25567;48.276;14.242;2022-08-19T06:59:30;30.63;;;16.83;;
39896;SDS011;25567;48.276;14.242;2022-08-19T07:02:02;33.63;;;18.10;;
39896;SDS011;25567;48.276;14.242;2022-08-19T07:04:32;33.90;;;18.63;;
39896;SDS011;25567;48.276;14.242;2022-08-19T07:07:02;31.70;;;18.58;;
39896;SDS011;25567;48.276;14.242;2022-08-19T07:09:46;37.42;;;19.58;;
39896;SDS011;25567;48.276;14.242;2022-08-19T07:12:25;35.67;;;19.17;;
39896;SDS011;25567;48.276;14.242;2022-08-19T07:14:57;34.22;;;19.67;;
39896;SDS011;25567;48.276;14.242;2022-08-19T07:17:25;32.38;;;19.88;;
39896;SDS011;25567;48.276;14.242;2022-08-19T07:19:52;33.13;;;20.00;;
39896;SDS011;25567;48.276;14.242;2022-08-19T07:22:20;32.33;;;19.25;;
39896;SDS011;25567;48.276;14.242;2022-08-19T07:24:50;35.88;;;19.52;;
39896;SDS011;25567;48.276;14.242;2022-08-19T07:27:19;33.15;;;19.98;;
39896;SDS011;25567;48.276;14.242;2022-08-19T07:29:51;35.55;;;20.55;;
39896;SDS011;25567;48.276;14.242;2022-08-19T07:32:23;32.50;;;19.23;;
39896;SDS011;25567;48.276;14.242;2022-08-19T07:34:53;37.92;;;21.35;;
39896;SDS011;25567;48.276;14.242;2022-08-19T07:37:23;36.78;;;19.75;;
39896;SDS011;25567;48.276;14.242;2022-08-19T07:39:58;37.08;;;21.67;;
39896;SDS011;25567;48.276;14.242;2022-08-19T07:42:25;40.17;;;21.95;;
39896;SDS011;25567;48.276;14.242;2022-08-19T07:44:52;42.35;;;22.45;;
39896;SDS011;25567;48.276;14.242;2022-08-19T07:47:19;45.25;;;22.33;;
39896;SDS011;25567;48.276;14.242;2022-08-19T07:52:35;31.95;;;18.45;;
39896;SDS011;25567;48.276;14.242;2022-08-19T07:55:06;39.35;;;21.52;;
39896;SDS011;25567;48.276;14.242;2022-08-19T07:57:57;35.28;;;21.25;;
39896;SDS011;25567;48.276;14.242;2022-08-19T08:00:24;37.97;;;20.73;;
39896;SDS011;25567;48.276;14.242;2022-08-19T08:02:52;34.53;;;20.48;;
39896;SDS011;25567;48.276;14.242;2022-08-19T08:05:21;36.30;;;22.30;;
39896;SDS011;25567;48.276;14.242;2022-08-19T08:08:08;41.97;;;23.30;;
39896;SDS011;25567;48.276;14.242;2022-08-19T08:10:53;37.92;;;21.80;;
39896;SDS011;25567;48.276;14.242;2022-08-19T08:13:22;40.25;;;21.48;;
39896;SDS011;25567;48.276;14.242;2022-08-19T08:15:50;40.20;;;23.23;;
39896;SDS011;25567;48.276;14.242;2022-08-19T08:18:19;38.15;;;23.25;;
39896;SDS011;25567;48.276;14.242;2022-08-19T08:20:53;35.70;;;20.45;;
39896;SDS011;25567;48.276;14.242;2022-08-19T08:23:22;36.50;;;21.75;;
39896;SDS011;25567;48.276;14.242;2022-08-19T08:25:52;39.92;;;22.58;;
39896;SDS011;25567;48.276;14.242;2022-08-19T08:28:21;39.30;;;22.02;;
39896;SDS011;25567;48.276;14.242;2022-08-19T08:30:49;50.25;;;23.73;;
39896;SDS011;25567;48.276;14.242;2022-08-19T08:33:18;43.03;;;24.50;;
39896;SDS011;25567;48.276;14.242;2022-08-19T08:36:01;39.38;;;23.10;;
39896;SDS011;25567;48.276;14.242;2022-08-19T08:38:31;39.45;;;21.80;;
39896;SDS011;25567;48.276;14.242;2022-08-19T08:41:09;34.53;;;20.90;;
39896;SDS011;25567;48.276;14.242;2022-08-19T08:43:40;38.43;;;21.83;;
39896;SDS011;25567;48.276;14.242;2022-08-19T08:46:10;38.85;;;20.60;;
39896;SDS011;25567;48.276;14.242;2022-08-19T08:51:27;32.50;;;19.23;;
39896;SDS011;25567;48.276;14.242;2022-08-19T08:54:05;40.45;;;22.25;;
39896;SDS011;25567;48.276;14.242;2022-08-19T08:56:43;32.00;;;19.67;;
39896;SDS011;25567;48.276;14.242;2022-08-19T08:59:20;36.47;;;20.85;;
39896;SDS011;25567;48.276;14.242;2022-08-19T09:01:53;37.20;;;20.98;;
39896;SDS011;25567;48.276;14.242;2022-08-19T09:04:20;33.90;;;19.27;;
39896;SDS011;25567;48.276;14.242;2022-08-19T09:10:04;38.05;;;21.67;;
39896;SDS011;25567;48.276;14.242;2022-08-19T09:15:38;36.58;;;20.27;;
39896;SDS011;25567;48.276;14.242;2022-08-19T09:18:38;41.80;;;22.40;;
39896;SDS011;25567;48.276;14.242;2022-08-19T09:21:16;35.88;;;22.92;;
39896;SDS011;25567;48.276;14.242;2022-08-19T09:23:47;36.00;;;22.00;;
39896;SDS011;25567;48.276;14.242;2022-08-19T09:26:22;38.30;;;21.75;;
39896;SDS011;25567;48.276;14.242;2022-08-19T09:29:09;38.70;;;23.13;;
39896;SDS011;25567;48.276;14.242;2022-08-19T09:31:36;40.83;;;21.33;;
39896;SDS011;25567;48.276;14.242;2022-08-19T09:34:04;36.78;;;22.63;;
39896;SDS011;25567;48.276;14.242;2022-08-19T09:36:31;29.77;;;19.50;;
39896;SDS011;25567;48.276;14.242;2022-08-19T09:39:00;31.20;;;18.55;;
39896;SDS011;25567;48.276;14.242;2022-08-19T09:41:27;34.88;;;21.42;;
39896;SDS011;25567;48.276;14.242;2022-08-19T09:43:55;39.95;;;23.08;;
39896;SDS011;25567;48.276;14.242;2022-08-19T09:46:26;35.90;;;21.80;;
39896;SDS011;25567;48.276;14.242;2022-08-19T09:48:56;30.55;;;19.60;;
39896;SDS011;25567;48.276;14.242;2022-08-19T09:51:31;32.63;;;20.85;;
39896;SDS011;25567;48.276;14.242;2022-08-19T09:54:01;31.88;;;20.00;;
39896;SDS011;25567;48.276;14.242;2022-08-19T09:56:31;30.27;;;17.77;;
39896;SDS011;25567;48.276;14.242;2022-08-19T09:58:59;30.73;;;19.00;;
39896;SDS011;25567;48.276;14.242;2022-08-19T10:01:28;37.63;;;21.13;;
39896;SDS011;25567;48.276;14.242;2022-08-19T10:03:57;37.42;;;22.08;;
39896;SDS011;25567;48.276;14.242;2022-08-19T10:06:27;45.35;;;21.92;;
39896;SDS011;25567;48.276;14.242;2022-08-19T10:09:11;40.50;;;20.70;;
39896;SDS011;25567;48.276;14.242;2022-08-19T10:11:40;26.35;;;17.13;;
39896;SDS011;25567;48.276;14.242;2022-08-19T10:14:17;30.50;;;17.73;;
39896;SDS011;25567;48.276;14.242;2022-08-19T10:16:49;28.75;;;18.30;;
39896;SDS011;25567;48.276;14.242;2022-08-19T10:19:18;29.50;;;17.65;;
39896;SDS011;25567;48.276;14.242;2022-08-19T10:21:54;31.60;;;18.15;;
39896;SDS011;25567;48.276;14.242;2022-08-19T10:24:25;27.58;;;17.75;;
39896;SDS011;25567;48.276;14.242;2022-08-19T10:26:54;35.10;;;19.25;;
39896;SDS011;25567;48.276;14.242;2022-08-19T10:29:26;31.73;;;18.05;;
39896;SDS011;25567;48.276;14.242;2022-08-19T10:31:58;33.42;;;17.95;;
39896;SDS011;25567;48.276;14.242;2022-08-19T10:34:29;23.52;;;15.43;;
39896;SDS011;25567;48.276;14.242;2022-08-19T10:36:57;28.60;;;14.75;;
39896;SDS011;25567;48.276;14.242;2022-08-19T10:39:28;23.80;;;13.75;;
39896;SDS011;25567;48.276;14.242;2022-08-19T10:42:08;24.95;;;14.18;;
39896;SDS011;25567;48.276;14.242;2022-08-19T10:44:37;21.83;;;13.20;;
39896;SDS011;25567;48.276;14.242;2022-08-19T10:47:04;24.42;;;16.52;;
39896;SDS011;25567;48.276;14.242;2022-08-19T10:49:52;23.63;;;15.18;;
39896;SDS011;25567;48.276;14.242;2022-08-19T10:52:37;18.65;;;13.52;;
39896;SDS011;25567;48.276;14.242;2022-08-19T10:55:16;18.50;;;13.05;;
39896;SDS011;25567;48.276;14.242;2022-08-19T10:58:00;20.83;;;13.43;;
39896;SDS011;25567;48.276;14.242;2022-08-19T11:00:28;21.27;;;13.85;;
39896;SDS011;25567;48.276;14.242;2022-08-19T11:02:57;19.45;;;12.88;;
39896;SDS011;25567;48.276;14.242;2022-08-19T11:05:27;20.08;;;14.32;;
39896;SDS011;25567;48.276;14.242;2022-08-19T11:08:01;23.67;;;14.82;;
39896;SDS011;25567;48.276;14.242;2022-08-19T11:13:15;24.48;;;14.93;;
39896;SDS011;25567;48.276;14.242;2022-08-19T11:15:42;24.70;;;15.27;;
39896;SDS011;25567;48.276;14.242;2022-08-19T11:18:09;22.90;;;14.93;;
39896;SDS011;25567;48.276;14.242;2022-08-19T11:20:38;19.90;;;12.98;;
39896;SDS011;25567;48.276;14.242;2022-08-19T11:23:06;20.60;;;13.15;;
39896;SDS011;25567;48.276;14.242;2022-08-19T11:25:33;19.83;;;11.55;;
39896;SDS011;25567;48.276;14.242;2022-08-19T11:28:01;17.25;;;12.00;;
39896;SDS011;25567;48.276;14.242;2022-08-19T11:30:28;16.55;;;11.20;;
39896;SDS011;25567;48.276;14.242;2022-08-19T11:32:54;18.30;;;12.40;;
39896;SDS011;25567;48.276;14.242;2022-08-19T11:35:21;22.25;;;14.60;;
39896;SDS011;25567;48.276;14.242;2022-08-19T11:37:49;25.25;;;15.68;;
39896;SDS011;25567;48.276;14.242;2022-08-19T11:40:16;25.23;;;14.45;;
39896;SDS011;25567;48.276;14.242;2022-08-19T11:42:43;20.10;;;13.98;;
39896;SDS011;25567;48.276;14.242;2022-08-19T11:45:25;17.70;;;12.82;;
39896;SDS011;25567;48.276;14.242;2022-08-19T11:47:54;17.75;;;12.20;;
39896;SDS011;25567;48.276;14.242;2022-08-19T11:50:23;21.98;;;13.13;;
39896;SDS011;25567;48.276;14.242;2022-08-19T11:52:53;18.27;;;12.18;;
39896;SDS011;25567;48.276;14.242;2022-08-19T11:55:20;19.58;;;12.40;;
39896;SDS011;25567;48.276;14.242;2022-08-19T11:57:48;19.75;;;13.05;;
39896;SDS011;25567;48.276;14.242;2022-08-19T12:00:15;19.15;;;13.18;;
39896;SDS011;25567;48.276;14.242;2022-08-19T12:02:46;21.45;;;13.35;;
39896;SDS011;25567;48.276;14.242;2022-08-19T12:05:13;18.95;;;13.15;;
39896;SDS011;25567;48.276;14.242;2022-08-19T12:07:45;23.75;;;13.80;;
39896;SDS011;25567;48.276;14.242;2022-08-19T12:10:34;21.73;;;13.85;;
39896;SDS011;25567;48.276;14.242;2022-08-19T12:13:08;22.08;;;13.73;;
39896;SDS011;25567;48.276;14.242;2022-08-19T12:15:45;19.02;;;13.60;;
39896;SDS011;25567;48.276;14.242;2022-08-19T12:18:17;19.02;;;13.07;;
39896;SDS011;25567;48.276;14.242;2022-08-19T12:21:38;18.05;;;13.18;;
39896;SDS011;25567;48.276;14.242;2022-08-19T12:24:05;18.40;;;13.05;;
39896;SDS011;25567;48.276;14.242;2022-08-19T12:26:32;19.10;;;12.05;;
39896;SDS011;25567;48.276;14.242;2022-08-19T12:29:21;18.38;;;12.05;;
39896;SDS011;25567;48.276;14.242;2022-08-19T12:31:49;21.40;;;12.35;;
39896;SDS011;25567;48.276;14.242;2022-08-19T12:34:23;14.85;;;11.40;;
39896;SDS011;25567;48.276;14.242;2022-08-19T12:37:00;17.63;;;11.85;;
39896;SDS011;25567;48.276;14.242;2022-08-19T12:39:29;18.10;;;12.30;;
39896;SDS011;25567;48.276;14.242;2022-08-19T12:41:57;25.20;;;12.43;;
39896;SDS011;25567;48.276;14.242;2022-08-19T12:44:24;19.50;;;13.18;;
39896;SDS011;25567;48.276;14.242;2022-08-19T12:46:55;18.63;;;10.57;;
39896;SDS011;25567;48.276;14.242;2022-08-19T12:49:22;23.10;;;11.77;;
39896;SDS011;25567;48.276;14.242;2022-08-19T12:52:10;17.30;;;12.07;;
39896;SDS011;25567;48.276;14.242;2022-08-19T12:54:40;21.25;;;12.05;;
39896;SDS011;25567;48.276;14.242;2022-08-19T12:57:07;20.20;;;11.38;;
39896;SDS011;25567;48.276;14.242;2022-08-19T12:59:36;16.75;;;11.35;;
39896;SDS011;25567;48.276;14.242;2022-08-19T13:02:04;19.17;;;11.05;;
39896;SDS011;25567;48.276;14.242;2022-08-19T13:04:32;16.55;;;10.20;;
39896;SDS011;25567;48.276;14.242;2022-08-19T13:07:02;18.23;;;9.73;;
39896;SDS011;25567;48.276;14.242;2022-08-19T13:09:33;15.40;;;10.27;;
39896;SDS011;25567;48.276;14.242;2022-08-19T13:12:01;13.88;;;9.50;;
39896;SDS011;25567;48.276;14.242;2022-08-19T13:14:29;14.23;;;9.45;;
39896;SDS011;25567;48.276;14.242;2022-08-19T13:16:58;15.95;;;9.45;;
39896;SDS011;25567;48.276;14.242;2022-08-19T13:19:25;16.95;;;9.40;;
39896;SDS011;25567;48.276;14.242;2022-08-19T13:21:52;13.93;;;9.50;;
39896;SDS011;25567;48.276;14.242;2022-08-19T13:24:25;15.00;;;9.15;;
39896;SDS011;25567;48.276;14.242;2022-08-19T13:26:59;16.90;;;10.05;;
39896;SDS011;25567;48.276;14.242;2022-08-19T13:29:26;16.50;;;9.43;;
39896;SDS011;25567;48.276;14.242;2022-08-19T13:32:08;13.18;;;8.55;;
39896;SDS011;25567;48.276;14.242;2022-08-19T13:34:52;13.13;;;9.18;;
39896;SDS011;25567;48.276;14.242;2022-08-19T13:37:20;13.48;;;9.63;;
39896;SDS011;25567;48.276;14.242;2022-08-19T13:40:08;14.23;;;8.98;;
39896;SDS011;25567;48.276;14.242;2022-08-19T13:42:39;14.98;;;8.68;;
39896;SDS011;25567;48.276;14.242;2022-08-19T13:45:06;12.48;;;8.07;;
39896;SDS011;25567;48.276;14.242;2022-08-19T13:47:34;12.85;;;8.85;;
39896;SDS011;25567;48.276;14.242;2022-08-19T13:50:03;14.95;;;7.85;;
39896;SDS011;25567;48.276;14.242;2022-08-19T13:52:30;12.98;;;7.82;;
39896;SDS011;25567;48.276;14.242;2022-08-19T13:54:58;15.50;;;9.13;;
39896;SDS011;25567;48.276;14.242;2022-08-19T13:57:24;13.48;;;9.15;;
39896;SDS011;25567;48.276;14.242;2022-08-19T13:59:59;16.45;;;10.43;;
39896;SDS011;25567;48.276;14.242;2022-08-19T14:02:27;15.27;;;10.15;;
39896;SDS011;25567;48.276;14.242;2022-08-19T14:04:54;15.70;;;9.95;;
39896;SDS011;25567;48.276;14.242;2022-08-19T14:07:22;22.42;;;10.35;;
39896;SDS011;25567;48.276;14.242;2022-08-19T14:09:50;14.27;;;9.60;;
39896;SDS011;25567;48.276;14.242;2022-08-19T14:12:19;14.93;;;9.77;;
39896;SDS011;25567;48.276;14.242;2022-08-19T14:14:54;16.83;;;9.80;;
39896;SDS011;25567;48.276;14.242;2022-08-19T14:17:21;12.10;;;7.97;;
39896;SDS011;25567;48.276;14.242;2022-08-19T14:19:48;13.63;;;8.40;;
39896;SDS011;25567;48.276;14.242;2022-08-19T14:22:21;16.10;;;8.88;;
39896;SDS011;25567;48.276;14.242;2022-08-19T14:24:48;14.55;;;8.00;;
39896;SDS011;25567;48.276;14.242;2022-08-19T14:27:16;12.07;;;8.15;;
39896;SDS011;25567;48.276;14.242;2022-08-19T14:29:43;15.65;;;8.63;;
39896;SDS011;25567;48.276;14.242;2022-08-19T14:32:10;14.98;;;9.35;;
39896;SDS011;25567;48.276;14.242;2022-08-19T14:34:42;15.68;;;9.43;;
39896;SDS011;25567;48.276;14.242;2022-08-19T14:37:12;16.55;;;9.43;;
39896;SDS011;25567;48.276;14.242;2022-08-19T14:39:41;12.50;;;8.45;;
39896;SDS011;25567;48.276;14.242;2022-08-19T14:42:08;15.15;;;9.05;;
39896;SDS011;25567;48.276;14.242;2022-08-19T14:44:37;14.75;;;9.15;;
39896;SDS011;25567;48.276;14.242;2022-08-19T14:47:04;12.30;;;7.72;;
39896;SDS011;25567;48.276;14.242;2022-08-19T14:49:35;16.77;;;8.00;;
39896;SDS011;25567;48.276;14.242;2022-08-19T14:52:11;17.40;;;7.22;;
39896;SDS011;25567;48.276;14.242;2022-08-19T14:54:38;16.88;;;8.02;;
39896;SDS011;25567;48.276;14.242;2022-08-19T14:57:16;14.68;;;7.22;;